Time;durP1;ratioP1;P1;durP2;ratioP2;P2;SDS_P1;SDS_P2;PMS_P1;PMS_P2;Temp;Humidity;BMP_temperature;BMP_pressure;BME280_temperature;BME280_humidity;BME280_pressure;Samples;Min_cycle;Max_cycle;Signal;HPM_P1;HPM_P2
2021/12/27 00:00:43;;;;;;;33.88;21.23;;;;;;;;;;5024681;28;20022;-73
2021/12/27 00:03:15;;;;;;;33.90;21.13;;;;;;;;;;5025075;28;20034;-74
2021/12/27 00:05:41;;;;;;;40.00;24.30;;;;;;;;;;5026798;28;20104;-75
2021/12/27 00:08:08;;;;;;;37.78;24.67;;;;;;;;;;5025831;28;20026;-77
2021/12/27 00:10:34;;;;;;;31.70;18.63;;;;;;;;;;5025987;28;20050;-77
2021/12/27 00:13:02;;;;;;;36.95;19.48;;;;;;;;;;5025230;28;20073;-76
2021/12/27 00:15:55;;;;;;;26.55;17.10;;;;;;;;;;5025342;28;20036;-73
2021/12/27 00:18:26;;;;;;;24.98;15.80;;;;;;;;;;5022650;28;20048;-72
2021/12/27 00:20:52;;;;;;;20.83;13.95;;;;;;;;;;5024123;28;20029;-72
2021/12/27 00:23:21;;;;;;;22.58;13.25;;;;;;;;;;5027147;28;20026;-74
2021/12/27 00:25:47;;;;;;;18.35;11.60;;;;;;;;;;5023681;28;20029;-76
2021/12/27 00:28:14;;;;;;;19.17;12.15;;;;;;;;;;5025673;28;20171;-75
2021/12/27 00:30:40;;;;;;;27.73;14.15;;;;;;;;;;5023742;28;20053;-77
2021/12/27 00:33:08;;;;;;;39.53;21.17;;;;;;;;;;5024112;28;20033;-73
2021/12/27 00:35:47;;;;;;;32.03;17.42;;;;;;;;;;5023015;28;20173;-73
2021/12/27 00:38:14;;;;;;;24.70;16.70;;;;;;;;;;5025531;28;20421;-76
2021/12/27 00:40:43;;;;;;;22.95;16.75;;;;;;;;;;5025426;28;20504;-73
2021/12/27 00:43:12;;;;;;;23.55;14.13;;;;;;;;;;5023179;28;20384;-73
2021/12/27 00:45:38;;;;;;;19.30;11.48;;;;;;;;;;5022699;28;20030;-75
2021/12/27 00:48:04;;;;;;;26.85;14.90;;;;;;;;;;5024374;28;20034;-77
2021/12/27 00:50:34;;;;;;;30.10;16.70;;;;;;;;;;5024704;28;20044;-77
2021/12/27 00:53:05;;;;;;;24.88;14.15;;;;;;;;;;5024651;28;20089;-73
2021/12/27 00:55:31;;;;;;;24.33;15.63;;;;;;;;;;5025436;28;20030;-78
2021/12/27 00:57:57;;;;;;;25.17;14.40;;;;;;;;;;5026427;28;20053;-74
2021/12/27 01:00:25;;;;;;;28.20;15.60;;;;;;;;;;5023635;28;20037;-75
2021/12/27 01:02:53;;;;;;;20.65;13.35;;;;;;;;;;5024218;28;20552;-75
2021/12/27 01:05:20;;;;;;;21.95;13.20;;;;;;;;;;5024950;28;20033;-76
2021/12/27 01:07:52;;;;;;;19.08;12.35;;;;;;;;;;5023987;28;20041;-72
2021/12/27 01:13:20;;;;;;;20.77;13.90;;;;;;;;;;5023381;28;20594;-76
2021/12/27 01:16:02;;;;;;;26.30;15.13;;;;;;;;;;5022190;28;20026;-76
2021/12/27 01:18:29;;;;;;;20.13;13.50;;;;;;;;;;5023455;28;20105;-74
2021/12/27 01:20:55;;;;;;;25.15;14.35;;;;;;;;;;5022744;28;20094;-78
2021/12/27 01:23:21;;;;;;;20.33;14.40;;;;;;;;;;5023486;28;20029;-78
2021/12/27 01:25:47;;;;;;;21.65;14.07;;;;;;;;;;5022965;28;20040;-72
2021/12/27 01:28:13;;;;;;;21.17;13.57;;;;;;;;;;5022926;28;20090;-77
2021/12/27 01:30:47;;;;;;;22.65;13.80;;;;;;;;;;5022080;28;20026;-77
2021/12/27 01:33:13;;;;;;;19.73;13.82;;;;;;;;;;5023797;28;20033;-75
2021/12/27 01:35:40;;;;;;;19.83;13.02;;;;;;;;;;5025000;28;20098;-76
2021/12/27 01:38:06;;;;;;;22.58;13.77;;;;;;;;;;5026781;28;20111;-76
2021/12/27 01:40:32;;;;;;;17.83;12.50;;;;;;;;;;5026498;28;20026;-76
2021/12/27 01:43:16;;;;;;;22.15;13.20;;;;;;;;;;5027118;28;20044;-77
2021/12/27 01:45:47;;;;;;;20.60;12.60;;;;;;;;;;5027028;28;20101;-78
2021/12/27 01:48:21;;;;;;;21.20;12.10;;;;;;;;;;5026339;28;20083;-73
2021/12/27 01:50:52;;;;;;;14.85;9.43;;;;;;;;;;5028206;28;20026;-75
2021/12/27 01:53:19;;;;;;;16.88;10.68;;;;;;;;;;5026839;28;20093;-76
2021/12/27 01:55:48;;;;;;;14.10;9.43;;;;;;;;;;5027200;28;20538;-75
2021/12/27 01:58:20;;;;;;;16.98;8.98;;;;;;;;;;5025560;28;20121;-78
2021/12/27 02:00:49;;;;;;;13.07;8.90;;;;;;;;;;5026656;28;20029;-77
2021/12/27 02:03:16;;;;;;;14.52;10.27;;;;;;;;;;5026793;28;20081;-77
2021/12/27 02:05:43;;;;;;;17.17;10.45;;;;;;;;;;5026318;28;20018;-71
2021/12/27 02:08:09;;;;;;;17.92;10.13;;;;;;;;;;5026523;28;20036;-76
2021/12/27 02:10:36;;;;;;;16.35;9.52;;;;;;;;;;5025678;28;20021;-72
2021/12/27 02:13:02;;;;;;;15.40;8.02;;;;;;;;;;5022570;28;20026;-77
2021/12/27 02:15:28;;;;;;;13.48;8.20;;;;;;;;;;5024584;28;20025;-75
2021/12/27 02:17:54;;;;;;;9.70;6.97;;;;;;;;;;5022101;28;20030;-74
2021/12/27 02:20:22;;;;;;;9.20;6.63;;;;;;;;;;5024116;28;20472;-76
2021/12/27 02:22:49;;;;;;;12.23;7.50;;;;;;;;;;5024882;28;20042;-74
2021/12/27 02:25:15;;;;;;;11.77;7.45;;;;;;;;;;5024360;28;20290;-77
2021/12/27 02:27:43;;;;;;;14.95;7.65;;;;;;;;;;5024013;28;20054;-75
2021/12/27 02:30:10;;;;;;;10.95;6.22;;;;;;;;;;5024306;28;20022;-76
2021/12/27 02:32:50;;;;;;;8.63;5.80;;;;;;;;;;5024359;28;20029;-73
2021/12/27 02:35:21;;;;;;;8.23;5.53;;;;;;;;;;5025303;28;20042;-74
2021/12/27 02:37:47;;;;;;;8.98;6.00;;;;;;;;;;5024875;28;20033;-78
2021/12/27 02:40:13;;;;;;;9.32;5.80;;;;;;;;;;5022761;28;20030;-78
2021/12/27 02:43:12;;;;;;;11.45;7.03;;;;;;;;;;5023055;28;20485;-77
2021/12/27 02:45:43;;;;;;;9.35;5.93;;;;;;;;;;4990741;28;20038;-76
2021/12/27 02:48:10;;;;;;;9.80;6.47;;;;;;;;;;5021898;28;20404;-77
2021/12/27 02:50:36;;;;;;;7.40;5.47;;;;;;;;;;5022033;28;20033;-72
2021/12/27 02:53:03;;;;;;;8.75;5.18;;;;;;;;;;5022566;28;20033;-78
2021/12/27 02:55:29;;;;;;;8.38;5.55;;;;;;;;;;5022637;28;20456;-73
2021/12/27 02:57:56;;;;;;;7.07;4.97;;;;;;;;;;5022282;28;20491;-74
2021/12/27 03:00:27;;;;;;;8.32;5.35;;;;;;;;;;5025052;28;20030;-79
2021/12/27 03:02:54;;;;;;;9.48;5.20;;;;;;;;;;5027100;28;20018;-73
2021/12/27 03:05:21;;;;;;;8.60;5.50;;;;;;;;;;5025813;28;20030;-75
2021/12/27 03:07:49;;;;;;;6.93;4.70;;;;;;;;;;5024709;28;20026;-75
2021/12/27 03:10:17;;;;;;;6.90;5.05;;;;;;;;;;5024603;28;20026;-74
2021/12/27 03:12:44;;;;;;;7.25;4.82;;;;;;;;;;5024468;28;20487;-76
2021/12/27 03:15:10;;;;;;;7.13;4.53;;;;;;;;;;5023625;28;20487;-76
2021/12/27 03:17:37;;;;;;;5.75;3.95;;;;;;;;;;5024455;28;20033;-77
2021/12/27 03:20:07;;;;;;;5.55;4.20;;;;;;;;;;5023797;28;20084;-77
2021/12/27 03:22:33;;;;;;;6.30;4.38;;;;;;;;;;5023037;28;20048;-72
2021/12/27 03:24:59;;;;;;;7.88;4.97;;;;;;;;;;5023948;28;20025;-75
2021/12/27 03:27:26;;;;;;;8.50;4.80;;;;;;;;;;5022743;28;20026;-77
2021/12/27 03:29:52;;;;;;;5.03;4.30;;;;;;;;;;5024161;28;20064;-75
2021/12/27 03:32:21;;;;;;;7.40;4.45;;;;;;;;;;5024344;28;20105;-77
2021/12/27 03:34:55;;;;;;;7.05;4.30;;;;;;;;;;5024019;28;20057;-76
2021/12/27 03:37:22;;;;;;;8.35;4.82;;;;;;;;;;5023541;28;20022;-78
2021/12/27 03:39:48;;;;;;;6.25;4.80;;;;;;;;;;5022507;28;20025;-75
2021/12/27 03:42:15;;;;;;;8.07;5.35;;;;;;;;;;5022422;28;20036;-76
2021/12/27 03:44:41;;;;;;;8.65;4.80;;;;;;;;;;5021411;28;20553;-75
2021/12/27 03:47:07;;;;;;;6.07;4.00;;;;;;;;;;5022765;28;20026;-75
2021/12/27 03:49:33;;;;;;;5.22;3.97;;;;;;;;;;5021507;28;20488;-75
2021/12/27 03:51:59;;;;;;;9.00;4.78;;;;;;;;;;5022204;28;20029;-77
2021/12/27 03:54:25;;;;;;;9.45;4.97;;;;;;;;;;5022019;28;20030;-75
2021/12/27 03:56:51;;;;;;;9.07;4.70;;;;;;;;;;5020527;28;20018;-76
2021/12/27 03:59:49;;;;;;;5.07;4.18;;;;;;;;;;5022892;28;20028;-77
2021/12/27 04:02:07;;;;;;;6.93;4.68;;;;;;;;;;5020858;28;20091;-77
2021/12/27 04:04:33;;;;;;;9.10;4.70;;;;;;;;;;5021717;28;20041;-75
2021/12/27 04:07:00;;;;;;;8.05;4.95;;;;;;;;;;5022421;28;20018;-75
2021/12/27 04:09:26;;;;;;;9.13;5.50;;;;;;;;;;5022743;28;20028;-76
2021/12/27 04:11:52;;;;;;;8.25;5.85;;;;;;;;;;5022542;28;20026;-76
2021/12/27 04:14:18;;;;;;;4.82;3.75;;;;;;;;;;5021102;28;20057;-76
2021/12/27 04:16:46;;;;;;;7.35;3.78;;;;;;;;;;5021325;28;20022;-76
2021/12/27 04:19:12;;;;;;;5.20;3.10;;;;;;;;;;5019962;28;20473;-74
2021/12/27 04:21:38;;;;;;;4.82;3.13;;;;;;;;;;5021928;28;20026;-76
2021/12/27 04:24:05;;;;;;;4.82;3.42;;;;;;;;;;5020643;28;20029;-73
2021/12/27 04:26:31;;;;;;;4.53;3.83;;;;;;;;;;5022072;28;20054;-76
2021/12/27 04:28:57;;;;;;;6.47;3.97;;;;;;;;;;5020870;28;20037;-73
2021/12/27 04:31:23;;;;;;;6.18;2.97;;;;;;;;;;5021807;28;20033;-75
2021/12/27 04:33:50;;;;;;;4.65;3.00;;;;;;;;;;5020024;28;20068;-74
2021/12/27 04:36:16;;;;;;;9.23;3.92;;;;;;;;;;5021890;28;20026;-76
2021/12/27 04:38:45;;;;;;;5.03;3.80;;;;;;;;;;5021216;28;20028;-78
2021/12/27 04:41:13;;;;;;;4.32;3.10;;;;;;;;;;5020620;28;20022;-76
2021/12/27 04:43:40;;;;;;;4.10;3.50;;;;;;;;;;5021085;28;20492;-77
2021/12/27 04:46:06;;;;;;;6.05;3.30;;;;;;;;;;5020569;28;20357;-76
2021/12/27 04:48:32;;;;;;;4.30;3.30;;;;;;;;;;5020521;28;20033;-75
2021/12/27 04:50:59;;;;;;;8.68;3.85;;;;;;;;;;5020947;28;20072;-74
2021/12/27 04:53:28;;;;;;;6.07;3.70;;;;;;;;;;5020094;28;20120;-78
2021/12/27 04:55:54;;;;;;;6.65;4.18;;;;;;;;;;5019330;28;20113;-74
2021/12/27 04:58:22;;;;;;;6.22;4.03;;;;;;;;;;5019687;28;20483;-78
2021/12/27 05:00:48;;;;;;;6.82;4.30;;;;;;;;;;5018770;28;20029;-77
2021/12/27 05:03:14;;;;;;;9.65;4.45;;;;;;;;;;5020723;28;20040;-75
2021/12/27 05:05:43;;;;;;;6.47;4.18;;;;;;;;;;5020264;28;20041;-76
2021/12/27 05:08:10;;;;;;;5.60;4.78;;;;;;;;;;5019911;28;20104;-73
2021/12/27 05:10:36;;;;;;;7.85;4.47;;;;;;;;;;5018149;28;20026;-74
2021/12/27 05:13:03;;;;;;;7.00;4.63;;;;;;;;;;5019502;28;20030;-74
2021/12/27 05:15:29;;;;;;;9.82;5.18;;;;;;;;;;5019794;28;20033;-76
2021/12/27 05:17:55;;;;;;;8.32;5.63;;;;;;;;;;5020113;28;20025;-74
2021/12/27 05:20:21;;;;;;;9.25;5.65;;;;;;;;;;5019658;28;20569;-75
2021/12/27 05:22:48;;;;;;;8.85;5.80;;;;;;;;;;5019176;28;20025;-76
2021/12/27 05:25:16;;;;;;;7.10;5.10;;;;;;;;;;5018813;28;20040;-76
2021/12/27 05:27:43;;;;;;;7.85;5.43;;;;;;;;;;5020223;28;20033;-74
2021/12/27 05:30:09;;;;;;;8.73;5.72;;;;;;;;;;5019808;28;20100;-76
2021/12/27 05:32:36;;;;;;;6.70;6.00;;;;;;;;;;5021579;28;20076;-77
2021/12/27 05:35:05;;;;;;;8.95;5.78;;;;;;;;;;5019146;28;20045;-77
2021/12/27 05:37:31;;;;;;;8.18;5.32;;;;;;;;;;5017803;28;20499;-76
2021/12/27 05:40:03;;;;;;;7.68;5.10;;;;;;;;;;5020644;28;20030;-73
2021/12/27 05:42:29;;;;;;;9.15;5.55;;;;;;;;;;5019555;28;20060;-75
2021/12/27 05:44:55;;;;;;;9.13;5.40;;;;;;;;;;5018973;28;20029;-76
2021/12/27 05:47:21;;;;;;;6.90;5.38;;;;;;;;;;5017821;28;20052;-76
2021/12/27 05:49:47;;;;;;;8.43;6.00;;;;;;;;;;5018237;28;20030;-75
2021/12/27 05:52:13;;;;;;;11.23;5.35;;;;;;;;;;5020438;28;20030;-76
2021/12/27 05:54:39;;;;;;;9.05;6.03;;;;;;;;;;5020298;28;20037;-77
2021/12/27 05:57:06;;;;;;;8.38;5.22;;;;;;;;;;5019985;28;20029;-77
2021/12/27 05:59:38;;;;;;;8.40;4.55;;;;;;;;;;5018621;28;20044;-76
2021/12/27 06:02:04;;;;;;;7.07;4.65;;;;;;;;;;5020684;28;20114;-73
2021/12/27 06:04:30;;;;;;;6.28;5.00;;;;;;;;;;5021325;28;20476;-77
2021/12/27 06:06:59;;;;;;;10.77;5.63;;;;;;;;;;5020549;28;20339;-73
2021/12/27 06:09:25;;;;;;;7.03;4.95;;;;;;;;;;5019533;28;20084;-74
2021/12/27 06:11:52;;;;;;;7.05;4.35;;;;;;;;;;5019858;28;20034;-76
2021/12/27 06:14:18;;;;;;;6.15;4.60;;;;;;;;;;5020628;28;20057;-72
2021/12/27 06:16:44;;;;;;;10.45;5.43;;;;;;;;;;5018932;28;20030;-77
2021/12/27 06:19:10;;;;;;;8.95;5.72;;;;;;;;;;5021896;28;20034;-74
2021/12/27 06:21:37;;;;;;;7.70;5.22;;;;;;;;;;5023330;28;20120;-76
2021/12/27 06:24:03;;;;;;;7.90;5.57;;;;;;;;;;5023044;28;20082;-72
2021/12/27 06:26:29;;;;;;;11.00;5.15;;;;;;;;;;5023493;28;20026;-76
2021/12/27 06:28:55;;;;;;;8.07;5.65;;;;;;;;;;5022418;28;20460;-73
2021/12/27 06:31:22;;;;;;;10.55;5.57;;;;;;;;;;5023696;28;20109;-77
2021/12/27 06:33:48;;;;;;;8.88;5.25;;;;;;;;;;5022339;28;20022;-73
2021/12/27 06:36:15;;;;;;;9.77;5.65;;;;;;;;;;5024567;28;20046;-77
2021/12/27 06:38:42;;;;;;;7.53;4.85;;;;;;;;;;5023628;28;20073;-75
2021/12/27 06:41:08;;;;;;;9.27;5.47;;;;;;;;;;5023047;28;20049;-76
2021/12/27 06:43:34;;;;;;;7.05;5.10;;;;;;;;;;5023145;28;20113;-74
2021/12/27 06:46:00;;;;;;;8.27;5.03;;;;;;;;;;5023706;28;20064;-76
2021/12/27 06:48:27;;;;;;;11.88;6.22;;;;;;;;;;5023016;28;20104;-73
2021/12/27 06:50:53;;;;;;;7.78;4.90;;;;;;;;;;5022413;28;20018;-75
2021/12/27 06:53:28;;;;;;;8.88;5.75;;;;;;;;;;5023499;28;20031;-76
2021/12/27 06:55:54;;;;;;;;;;;;;;;;;;5024617;28;20029;-74
2021/12/27 06:58:21;;;;;;;6.43;5.05;;;;;;;;;;5022449;28;20355;-77
2021/12/27 07:00:47;;;;;;;7.35;5.07;;;;;;;;;;5023456;28;20042;-74
2021/12/27 07:03:14;;;;;;;7.13;3.90;;;;;;;;;;5022291;28;20026;-75
2021/12/27 07:05:41;;;;;;;11.40;4.63;;;;;;;;;;5020850;28;20022;-79
2021/12/27 07:08:08;;;;;;;11.88;5.10;;;;;;;;;;5022738;28;20080;-75
2021/12/27 07:10:34;;;;;;;12.07;5.03;;;;;;;;;;5022899;28;20037;-74
2021/12/27 07:13:02;;;;;;;10.63;5.28;;;;;;;;;;5022628;28;20032;-73
2021/12/27 07:15:28;;;;;;;11.20;5.13;;;;;;;;;;5020992;28;20396;-75
2021/12/27 07:17:54;;;;;;;10.85;4.82;;;;;;;;;;5021885;28;20061;-73
2021/12/27 07:20:24;;;;;;;9.02;5.05;;;;;;;;;;5024498;28;20022;-74
2021/12/27 07:22:53;;;;;;;8.00;4.57;;;;;;;;;;5021720;28;20026;-75
2021/12/27 07:25:19;;;;;;;8.60;4.78;;;;;;;;;;5022346;28;20030;-73
2021/12/27 07:27:45;;;;;;;17.08;5.75;;;;;;;;;;5023348;28;20630;-75
2021/12/27 07:30:12;;;;;;;15.55;5.35;;;;;;;;;;5024566;28;20030;-73
2021/12/27 07:32:38;;;;;;;12.07;5.68;;;;;;;;;;5024286;28;20030;-76
2021/12/27 07:35:08;;;;;;;8.73;5.05;;;;;;;;;;5024236;28;20049;-71
2021/12/27 07:37:34;;;;;;;13.75;6.05;;;;;;;;;;5023309;28;20054;-75
2021/12/27 07:40:00;;;;;;;11.57;5.95;;;;;;;;;;5023216;28;20037;-76
2021/12/27 07:42:26;;;;;;;12.68;6.07;;;;;;;;;;5024163;28;20106;-73
2021/12/27 07:44:52;;;;;;;8.68;5.97;;;;;;;;;;5022670;28;20030;-77
2021/12/27 07:47:18;;;;;;;11.95;6.10;;;;;;;;;;5022447;28;20036;-75
2021/12/27 07:49:44;;;;;;;13.35;6.07;;;;;;;;;;5023217;28;20100;-77
2021/12/27 07:52:10;;;;;;;12.43;5.63;;;;;;;;;;5023003;28;20029;-77
2021/12/27 07:54:37;;;;;;;13.27;6.13;;;;;;;;;;5023210;28;20030;-72
2021/12/27 07:57:04;;;;;;;8.13;5.10;;;;;;;;;;5021684;28;20022;-75
2021/12/27 07:59:30;;;;;;;16.23;6.00;;;;;;;;;;5023192;28;20026;-78
2021/12/27 08:01:59;;;;;;;8.43;6.00;;;;;;;;;;5024552;28;20431;-74
2021/12/27 08:04:26;;;;;;;11.55;5.38;;;;;;;;;;5022100;28;20034;-75
2021/12/27 08:06:55;;;;;;;9.32;5.22;;;;;;;;;;5023892;28;20040;-72
2021/12/27 08:09:21;;;;;;;11.40;5.45;;;;;;;;;;5023205;28;20037;-76
2021/12/27 08:11:48;;;;;;;9.23;5.20;;;;;;;;;;5023067;28;20527;-74
2021/12/27 08:14:14;;;;;;;9.25;5.38;;;;;;;;;;5023439;28;20030;-72
2021/12/27 08:16:40;;;;;;;11.90;6.13;;;;;;;;;;5025497;28;20022;-72
2021/12/27 08:19:12;;;;;;;12.07;5.13;;;;;;;;;;5024489;28;20026;-74
2021/12/27 08:21:38;;;;;;;11.57;5.05;;;;;;;;;;5022415;28;20045;-75
2021/12/27 08:24:06;;;;;;;9.38;5.85;;;;;;;;;;5026343;28;20029;-75
2021/12/27 08:26:32;;;;;;;8.35;4.72;;;;;;;;;;5023825;28;20026;-76
2021/12/27 08:28:59;;;;;;;11.85;5.80;;;;;;;;;;5024585;28;20026;-73
2021/12/27 08:31:25;;;;;;;8.45;4.88;;;;;;;;;;5023329;28;20164;-76
2021/12/27 08:33:52;;;;;;;9.80;4.97;;;;;;;;;;5021822;28;20063;-77
2021/12/27 08:36:19;;;;;;;8.45;5.00;;;;;;;;;;5022640;28;20046;-72
2021/12/27 08:38:47;;;;;;;9.85;5.50;;;;;;;;;;5021924;28;20018;-77
2021/12/27 08:41:14;;;;;;;7.03;4.50;;;;;;;;;;5022802;28;20511;-71
2021/12/27 08:43:40;;;;;;;8.52;4.72;;;;;;;;;;5024977;28;20469;-74
2021/12/27 08:46:06;;;;;;;6.90;4.68;;;;;;;;;;5022784;28;20026;-76
2021/12/27 08:48:48;;;;;;;9.50;3.97;;;;;;;;;;5023009;28;20033;-72
2021/12/27 08:51:35;;;;;;;10.55;4.72;;;;;;;;;;5023867;28;20018;-75
2021/12/27 08:54:04;;;;;;;11.38;4.82;;;;;;;;;;5025723;28;20033;-75
2021/12/27 08:56:31;;;;;;;8.60;4.97;;;;;;;;;;5022733;28;20495;-75
2021/12/27 08:58:59;;;;;;;8.80;4.70;;;;;;;;;;5023971;28;20037;-72
2021/12/27 09:01:26;;;;;;;9.15;4.88;;;;;;;;;;5023820;28;20024;-76
2021/12/27 09:03:59;;;;;;;11.52;5.13;;;;;;;;;;5022798;28;20025;-74
2021/12/27 09:06:25;;;;;;;9.80;5.10;;;;;;;;;;5024198;28;20026;-76
2021/12/27 09:08:51;;;;;;;10.25;5.53;;;;;;;;;;5025356;28;20022;-73
2021/12/27 09:11:23;;;;;;;10.32;5.10;;;;;;;;;;5024645;28;20017;-73
2021/12/27 09:13:55;;;;;;;10.63;4.72;;;;;;;;;;5023438;28;20026;-74
2021/12/27 09:16:21;;;;;;;14.13;5.80;;;;;;;;;;5023470;28;20014;-74
2021/12/27 09:18:47;;;;;;;10.82;5.65;;;;;;;;;;5022328;28;20026;-75
2021/12/27 09:21:13;;;;;;;9.95;5.00;;;;;;;;;;5023421;28;20026;-75
2021/12/27 09:23:39;;;;;;;12.13;5.28;;;;;;;;;;5023501;28;20026;-75
2021/12/27 09:26:06;;;;;;;8.68;5.70;;;;;;;;;;5023584;28;20048;-73
2021/12/27 09:28:32;;;;;;;9.15;5.78;;;;;;;;;;5023599;28;20026;-75
2021/12/27 09:30:58;;;;;;;13.57;6.43;;;;;;;;;;5023571;28;20476;-74
2021/12/27 09:33:31;;;;;;;12.35;7.55;;;;;;;;;;5023011;28;20025;-73
2021/12/27 09:35:58;;;;;;;15.82;6.13;;;;;;;;;;5023842;28;20034;-72
2021/12/27 09:38:24;;;;;;;13.45;6.30;;;;;;;;;;5024110;28;20037;-77
2021/12/27 09:40:50;;;;;;;15.00;6.30;;;;;;;;;;5023573;28;20042;-77
2021/12/27 09:43:16;;;;;;;13.23;6.10;;;;;;;;;;5025454;28;20018;-74
2021/12/27 09:45:43;;;;;;;10.77;5.22;;;;;;;;;;5025032;28;20030;-76
2021/12/27 09:48:15;;;;;;;8.40;5.32;;;;;;;;;;5023995;28;20488;-74
2021/12/27 09:50:43;;;;;;;13.10;5.68;;;;;;;;;;5024670;28;20026;-73
2021/12/27 09:53:09;;;;;;;12.15;6.30;;;;;;;;;;5025502;28;20411;-72
2021/12/27 09:55:35;;;;;;;9.23;5.13;;;;;;;;;;5026611;28;20021;-74
2021/12/27 09:58:02;;;;;;;10.18;4.13;;;;;;;;;;5027675;28;20060;-74
2021/12/27 10:00:46;;;;;;;13.25;5.70;;;;;;;;;;5027641;28;20018;-73
2021/12/27 10:03:17;;;;;;;10.18;5.05;;;;;;;;;;5027845;28;20072;-75
2021/12/27 10:05:43;;;;;;;13.73;4.70;;;;;;;;;;5029150;28;20033;-74
2021/12/27 10:08:19;;;;;;;12.32;4.55;;;;;;;;;;5030269;28;20045;-73
2021/12/27 10:10:47;;;;;;;10.02;5.63;;;;;;;;;;5029809;28;20032;-76
2021/12/27 10:13:22;;;;;;;15.50;5.82;;;;;;;;;;5030768;28;20031;-72
2021/12/27 10:15:53;;;;;;;10.43;5.13;;;;;;;;;;5029534;28;20033;-77
2021/12/27 10:18:19;;;;;;;7.38;4.63;;;;;;;;;;5029473;28;20519;-72
2021/12/27 10:20:46;;;;;;;8.65;4.50;;;;;;;;;;5029712;28;20515;-72
2021/12/27 10:23:19;;;;;;;10.40;4.90;;;;;;;;;;5028398;28;20025;-74
2021/12/27 10:25:48;;;;;;;8.82;5.93;;;;;;;;;;5027030;28;20108;-73
2021/12/27 10:28:14;;;;;;;11.25;6.18;;;;;;;;;;5027738;28;20096;-71
2021/12/27 10:30:45;;;;;;;15.13;6.68;;;;;;;;;;5028169;28;20548;-73
2021/12/27 10:33:24;;;;;;;11.18;5.90;;;;;;;;;;5028275;28;20030;-74
2021/12/27 10:35:55;;;;;;;16.20;6.20;;;;;;;;;;5028788;28;20053;-76
2021/12/27 10:38:23;;;;;;;14.98;6.13;;;;;;;;;;5027943;28;20022;-75
2021/12/27 10:41:16;;;;;;;10.50;6.60;;;;;;;;;;5029335;28;20045;-74
2021/12/27 10:43:47;;;;;;;10.93;5.55;;;;;;;;;;5028726;28;20022;-74
2021/12/27 10:49:28;;;;;;;12.77;5.40;;;;;;;;;;5029454;28;20036;-74
2021/12/27 10:52:13;;;;;;;;;;;;;;;;;;;;;
2021/12/27 10:55:03;;;;;;;11.90;5.47;;;;;;;;;;5028901;28;20078;-78
2021/12/27 10:57:29;;;;;;;9.20;5.53;;;;;;;;;;5030949;28;20022;-72
2021/12/27 11:00:16;;;;;;;8.55;4.20;;;;;;;;;;5025491;28;20499;-72
2021/12/27 11:02:52;;;;;;;11.05;4.40;;;;;;;;;;5028006;28;20026;-72
2021/12/27 11:05:26;;;;;;;6.30;3.85;;;;;;;;;;5025997;28;20030;-72
2021/12/27 11:08:12;;;;;;;8.38;3.80;;;;;;;;;;5029125;28;20057;-72
2021/12/27 11:10:38;;;;;;;5.18;3.10;;;;;;;;;;5028266;28;20057;-74
2021/12/27 11:13:07;;;;;;;7.07;3.28;;;;;;;;;;5029652;28;20033;-72
2021/12/27 11:16:00;;;;;;;6.78;3.78;;;;;;;;;;5031082;28;20034;-73
2021/12/27 11:18:41;;;;;;;9.02;3.20;;;;;;;;;;5030923;28;20026;-75
2021/12/27 11:21:17;;;;;;;6.45;3.00;;;;;;;;;;5027469;28;20026;-72
2021/12/27 11:23:53;;;;;;;4.72;3.00;;;;;;;;;;5027884;28;20353;-71
2021/12/27 11:26:23;;;;;;;6.82;3.00;;;;;;;;;;5027186;28;20225;-72
2021/12/27 11:28:49;;;;;;;10.80;2.75;;;;;;;;;;5027544;28;20026;-72
2021/12/27 11:31:24;;;;;;;7.47;2.60;;;;;;;;;;5027992;28;20029;-72
2021/12/27 11:34:07;;;;;;;9.65;2.80;;;;;;;;;;5026131;28;20108;-76
2021/12/27 11:36:38;;;;;;;5.10;2.75;;;;;;;;;;5007030;28;20098;-73
2021/12/27 11:39:36;;;;;;;9.52;3.10;;;;;;;;;;5008336;28;20034;-73
2021/12/27 11:42:10;;;;;;;7.30;2.88;;;;;;;;;;4992483;28;20045;-72
2021/12/27 11:44:53;;;;;;;4.68;2.30;;;;;;;;;;5026474;28;20030;-73
2021/12/27 11:47:24;;;;;;;4.20;2.60;;;;;;;;;;5027266;28;20029;-75
2021/12/27 11:49:53;;;;;;;7.72;3.17;;;;;;;;;;5026009;28;20486;-72
2021/12/27 11:52:19;;;;;;;14.07;3.33;;;;;;;;;;5027829;28;20026;-71
2021/12/27 13:15:20;;;;;;;7.00;4.28;;;;;;;;;;6144642;22;2472720;-82
2021/12/27 13:18:36;;;;;;;8.75;4.43;;;;;;;;;;6194608;23;20008;-80
2021/12/27 13:34:19;;;;;;;13.95;6.35;;;;;;;;;;6283013;22;20028;-81
2021/12/27 13:36:54;;;;;;;5.32;4.00;;;;;;;;;;6292880;22;20103;-80
2021/12/27 13:39:25;;;;;;;9.73;4.15;;;;;;;;;;6292259;22;20011;-80
2021/12/27 13:41:56;;;;;;;5.88;3.35;;;;;;;;;;6293869;22;20007;-80
2021/12/27 13:44:37;;;;;;;9.57;4.22;;;;;;;;;;6297512;22;20067;-81
2021/12/27 13:47:27;;;;;;;6.78;3.65;;;;;;;;;;6303258;22;19988;-83
2021/12/27 13:49:59;;;;;;;7.47;3.42;;;;;;;;;;6304260;22;20002;-83
2021/12/27 13:52:46;;;;;;;9.77;5.15;;;;;;;;;;6272864;22;20011;-82
2021/12/27 13:55:30;;;;;;;15.43;6.45;;;;;;;;;;6304076;22;20011;-83
2021/12/27 13:58:18;;;;;;;15.23;8.45;;;;;;;;;;6303380;22;20016;-82
2021/12/27 14:00:51;;;;;;;12.00;7.45;;;;;;;;;;6303598;22;20385;-80
2021/12/27 14:03:33;;;;;;;11.00;5.28;;;;;;;;;;6303301;22;19996;-81
2021/12/27 14:15:09;;;;;;;24.38;9.00;;;;;;;;;;6230891;23;20004;-81
2021/12/27 14:21:31;;;;;;;18.67;8.73;;;;;;;;;;6164207;22;20028;-81
2021/12/27 14:24:15;;;;;;;8.20;4.15;;;;;;;;;;6285725;22;20019;-84
2021/12/27 14:26:48;;;;;;;11.27;4.70;;;;;;;;;;6301684;22;20071;-79
2021/12/27 14:32:07;;;;;;;23.83;11.77;;;;;;;;;;6268297;22;20023;-83
2021/12/27 14:35:08;;;;;;;22.85;8.73;;;;;;;;;;6295529;22;20000;-81
2021/12/27 14:38:17;;;;;;;;;;;;;;;;;;;;;
2021/12/27 14:41:19;;;;;;;11.32;7.25;;;;;;;;;;6248925;22;20040;-80
2021/12/27 14:49:32;;;;;;;12.90;6.47;;;;;;;;;;6304880;22;20014;-83
2021/12/27 14:57:28;;;;;;;9.10;5.32;;;;;;;;;;6268239;22;20011;-79
2021/12/27 15:00:15;;;;;;;7.78;4.40;;;;;;;;;;6300857;22;19999;-80
2021/12/27 15:03:04;;;;;;;8.45;5.05;;;;;;;;;;6300855;22;20022;-82
2021/12/27 15:08:26;;;;;;;18.73;12.38;;;;;;;;;;6284131;22;20024;-78
2021/12/27 15:10:58;;;;;;;9.95;4.95;;;;;;;;;;6300494;22;20046;-78
2021/12/27 15:16:28;;;;;;;7.05;4.00;;;;;;;;;;6276596;22;20026;-78
2021/12/27 15:18:59;;;;;;;7.30;4.20;;;;;;;;;;6295006;22;19996;-80
2021/12/27 15:21:28;;;;;;;7.18;3.72;;;;;;;;;;6297418;22;19996;-80
2021/12/27 15:24:19;;;;;;;9.05;5.13;;;;;;;;;;6295730;22;19980;-81
2021/12/27 15:26:49;;;;;;;7.65;4.40;;;;;;;;;;6301645;22;20081;-82
2021/12/27 15:29:15;;;;;;;10.50;4.03;;;;;;;;;;6301283;22;20063;-82
2021/12/27 15:31:49;;;;;;;9.68;3.50;;;;;;;;;;6301942;22;19999;-81
2021/12/27 15:34:21;;;;;;;9.20;4.90;;;;;;;;;;6299393;22;20007;-81
2021/12/27 15:36:53;;;;;;;7.75;4.00;;;;;;;;;;6301997;22;20027;-80
2021/12/27 15:39:27;;;;;;;10.45;4.80;;;;;;;;;;6301770;22;20027;-80
2021/12/27 15:41:56;;;;;;;11.25;4.53;;;;;;;;;;6298873;22;20004;-80
2021/12/27 15:44:27;;;;;;;9.52;4.68;;;;;;;;;;6296048;22;20058;-81
2021/12/27 15:46:59;;;;;;;13.48;4.63;;;;;;;;;;6301630;22;20055;-81
2021/12/27 15:49:31;;;;;;;5.75;3.88;;;;;;;;;;6302015;22;20042;-81
2021/12/27 15:52:17;;;;;;;12.88;4.50;;;;;;;;;;6301771;22;19992;-81
2021/12/27 15:54:56;;;;;;;;;;;;;;;;;;;;;
2021/12/27 15:57:32;;;;;;;;;;;;;;;;;;;;;
2021/12/27 16:00:05;;;;;;;6.95;4.97;;;;;;;;;;6299180;22;19984;-80
2021/12/27 16:02:39;;;;;;;14.52;5.28;;;;;;;;;;6296097;22;19999;-81
2021/12/27 16:05:08;;;;;;;10.00;5.05;;;;;;;;;;6295490;22;20043;-82
2021/12/27 16:07:44;;;;;;;7.68;4.97;;;;;;;;;;6295389;22;20012;-81
2021/12/27 16:10:10;;;;;;;8.88;4.47;;;;;;;;;;6294940;22;19996;-82
2021/12/27 16:12:45;;;;;;;10.05;4.32;;;;;;;;;;6295788;22;20026;-81
2021/12/27 16:15:14;;;;;;;9.13;4.57;;;;;;;;;;6294357;22;20019;-80
2021/12/27 16:17:45;;;;;;;10.40;4.82;;;;;;;;;;6295301;22;20063;-80
2021/12/27 16:20:14;;;;;;;7.90;4.13;;;;;;;;;;6296679;22;20014;-79
2021/12/27 16:23:03;;;;;;;12.68;5.10;;;;;;;;;;6296201;22;19992;-80
2021/12/27 16:25:32;;;;;;;10.20;4.95;;;;;;;;;;6296958;22;20010;-80
2021/12/27 16:28:14;;;;;;;12.57;6.88;;;;;;;;;;6294740;22;20019;-80
2021/12/27 16:30:54;;;;;;;7.88;5.30;;;;;;;;;;6292490;22;20000;-81
2021/12/27 16:33:23;;;;;;;10.45;6.20;;;;;;;;;;6298120;22;20046;-78
2021/12/27 16:35:57;;;;;;;12.63;6.57;;;;;;;;;;6300539;22;20014;-83
2021/12/27 16:38:27;;;;;;;13.10;5.78;;;;;;;;;;6300444;22;20028;-81
2021/12/27 16:40:56;;;;;;;9.68;6.03;;;;;;;;;;6301366;22;20010;-83
2021/12/27 16:43:27;;;;;;;17.10;9.40;;;;;;;;;;6301350;22;20015;-83
2021/12/27 16:45:58;;;;;;;13.57;7.15;;;;;;;;;;6304263;22;19999;-81
2021/12/27 16:48:30;;;;;;;14.75;7.05;;;;;;;;;;6299970;22;20000;-83
2021/12/27 16:51:02;;;;;;;10.45;6.63;;;;;;;;;;6297728;22;20055;-83
2021/12/27 16:53:32;;;;;;;10.32;5.85;;;;;;;;;;6299301;22;20026;-82
2021/12/27 16:56:03;;;;;;;16.40;8.82;;;;;;;;;;6299634;22;20008;-82
2021/12/27 16:58:37;;;;;;;19.85;8.55;;;;;;;;;;6303016;22;20047;-82
2021/12/27 17:01:05;;;;;;;13.38;7.78;;;;;;;;;;6303966;22;20018;-80
2021/12/27 17:03:47;;;;;;;11.90;6.90;;;;;;;;;;6301942;22;20007;-82
2021/12/27 17:06:37;;;;;;;15.52;8.32;;;;;;;;;;6302518;22;19992;-79
2021/12/27 17:09:10;;;;;;;18.80;7.85;;;;;;;;;;6280116;22;20024;-81